Main page
METAR-TAF:

METAR-TAF

Airports :

São Pedro da Aldeia, Rio de Janeiro, Brazil

latitude: 22-49S, longitude: 042-06W, elevation: 10 m

Current weather observation

The report was made 10 hours and 48 minutes ago, at 21:00 UTC
Wind 10 kt from the Southwest
Temperature 26°C
Humidity 70%
Pressure 1013 hPa
Visibility 10 km or more
Few clouds at a height of 2000 ft

METAR: SBES 192100Z 23010KT 9999 FEW020 26/20 Q1013

Time: 04:48 (07:48 UTC)


TAF: missing

Weather observations and forecasts of more than 4000 airports (METAR and TAF reports).

The available stations are represented by yellow and red dots on the map.

Hover mouse over dot to see the name of the station.

Then click to see weather observations and forecasts.

To change the map : click on the green buttons with a black cross to zoom in, on the green button with a dash to zoom out, or on the green arrows for adjacent maps.


METAR-TAF: